sensor_id;sensor_type;location;lat;lon;timestamp;temperature;humidity
11091;DHT22;5599;52.210;21.046;2023-04-25T00:01:16;14.10;1.00
11091;DHT22;5599;52.210;21.046;2023-04-25T00:03:46;14.00;1.00
11091;DHT22;5599;52.210;21.046;2023-04-25T00:06:16;14.00;99.90
11091;DHT22;5599;52.210;21.046;2023-04-25T00:08:46;14.00;99.90
11091;DHT22;5599;52.210;21.046;2023-04-25T00:11:15;14.00;1.00
11091;DHT22;5599;52.210;21.046;2023-04-25T00:13:44;14.00;1.00
11091;DHT22;5599;52.210;21.046;2023-04-25T00:16:15;14.00;1.00
11091;DHT22;5599;52.210;21.046;2023-04-25T00:18:45;14.00;1.00
11091;DHT22;5599;52.210;21.046;2023-04-25T00:21:19;14.00;1.00
11091;DHT22;5599;52.210;21.046;2023-04-25T00:23:48;14.00;99.90
11091;DHT22;5599;52.210;21.046;2023-04-25T00:26:18;14.00;92.50
11091;DHT22;5599;52.210;21.046;2023-04-25T00:28:48;14.00;1.00
11091;DHT22;5599;52.210;21.046;2023-04-25T00:31:19;14.00;1.70
11091;DHT22;5599;52.210;21.046;2023-04-25T00:33:49;14.00;99.90
11091;DHT22;5599;52.210;21.046;2023-04-25T00:36:19;14.00;99.90
11091;DHT22;5599;52.210;21.046;2023-04-25T00:38:48;14.00;99.90
11091;DHT22;5599;52.210;21.046;2023-04-25T00:41:17;14.00;99.90
11091;DHT22;5599;52.210;21.046;2023-04-25T00:43:48;14.00;1.00
11091;DHT22;5599;52.210;21.046;2023-04-25T00:46:19;14.00;1.00
11091;DHT22;5599;52.210;21.046;2023-04-25T00:48:48;14.00;1.00
11091;DHT22;5599;52.210;21.046;2023-04-25T00:51:20;14.00;1.00
11091;DHT22;5599;52.210;21.046;2023-04-25T00:53:50;14.00;1.00
11091;DHT22;5599;52.210;21.046;2023-04-25T00:56:21;14.00;1.00
11091;DHT22;5599;52.210;21.046;2023-04-25T00:58:52;13.80;24.20
11091;DHT22;5599;52.210;21.046;2023-04-25T01:01:24;13.90;99.90
11091;DHT22;5599;52.210;21.046;2023-04-25T01:03:54;13.90;99.90
11091;DHT22;5599;52.210;21.046;2023-04-25T01:06:24;14.00;20.90
11091;DHT22;5599;52.210;21.046;2023-04-25T01:08:54;14.00;99.90
11091;DHT22;5599;52.210;21.046;2023-04-25T01:11:23;13.90;99.90
11091;DHT22;5599;52.210;21.046;2023-04-25T01:13:52;14.00;99.90
11091;DHT22;5599;52.210;21.046;2023-04-25T01:16:23;13.90;99.90
11091;DHT22;5599;52.210;21.046;2023-04-25T01:18:53;13.80;99.90
11091;DHT22;5599;52.210;21.046;2023-04-25T01:21:24;13.80;99.90
11091;DHT22;5599;52.210;21.046;2023-04-25T01:23:56;13.80;99.90
11091;DHT22;5599;52.210;21.046;2023-04-25T01:26:26;13.80;99.90
11091;DHT22;5599;52.210;21.046;2023-04-25T01:28:55;13.80;99.90
11091;DHT22;5599;52.210;21.046;2023-04-25T01:31:26;13.80;99.90
11091;DHT22;5599;52.210;21.046;2023-04-25T01:33:56;13.80;99.90
11091;DHT22;5599;52.210;21.046;2023-04-25T01:36:30;13.70;1.00
11091;DHT22;5599;52.210;21.046;2023-04-25T01:39:00;13.70;1.00
11091;DHT22;5599;52.210;21.046;2023-04-25T01:41:29;13.60;1.00
11091;DHT22;5599;52.210;21.046;2023-04-25T01:43:59;13.60;1.00
11091;DHT22;5599;52.210;21.046;2023-04-25T01:46:29;13.60;1.00
11091;DHT22;5599;52.210;21.046;2023-04-25T01:48:58;13.50;1.00
11091;DHT22;5599;52.210;21.046;2023-04-25T01:51:30;13.40;1.00
11091;DHT22;5599;52.210;21.046;2023-04-25T01:54:00;13.50;1.00
11091;DHT22;5599;52.210;21.046;2023-04-25T01:56:30;13.40;1.00
11091;DHT22;5599;52.210;21.046;2023-04-25T01:59:01;13.50;1.00
11091;DHT22;5599;52.210;21.046;2023-04-25T02:01:55;13.50;1.00
11091;DHT22;5599;52.210;21.046;2023-04-25T02:04:30;13.40;1.00
11091;DHT22;5599;52.210;21.046;2023-04-25T02:07:01;13.50;36.00
11091;DHT22;5599;52.210;21.046;2023-04-25T02:09:43;13.50;47.60
11091;DHT22;5599;52.210;21.046;2023-04-25T02:12:13;13.40;73.80
11091;DHT22;5599;52.210;21.046;2023-04-25T02:15:00;13.50;93.20
11091;DHT22;5599;52.210;21.046;2023-04-25T02:17:38;13.50;99.90
11091;DHT22;5599;52.210;21.046;2023-04-25T02:20:08;13.40;84.20
11091;DHT22;5599;52.210;21.046;2023-04-25T02:22:41;13.30;99.90
11091;DHT22;5599;52.210;21.046;2023-04-25T02:25:11;13.30;99.90
11091;DHT22;5599;52.210;21.046;2023-04-25T02:27:41;13.30;99.90
11091;DHT22;5599;52.210;21.046;2023-04-25T02:30:11;13.30;99.90
11091;DHT22;5599;52.210;21.046;2023-04-25T02:32:40;13.30;99.90
11091;DHT22;5599;52.210;21.046;2023-04-25T02:35:09;13.30;99.90
11091;DHT22;5599;52.210;21.046;2023-04-25T02:37:40;13.30;99.90
11091;DHT22;5599;52.210;21.046;2023-04-25T02:40:10;13.20;99.90
11091;DHT22;5599;52.210;21.046;2023-04-25T02:42:39;13.20;99.90
11091;DHT22;5599;52.210;21.046;2023-04-25T02:45:09;13.20;99.90
11091;DHT22;5599;52.210;21.046;2023-04-25T02:47:38;13.10;99.90
11091;DHT22;5599;52.210;21.046;2023-04-25T02:50:08;13.00;99.90
11091;DHT22;5599;52.210;21.046;2023-04-25T02:52:37;12.90;99.90
11091;DHT22;5599;52.210;21.046;2023-04-25T02:55:16;12.90;99.90
11091;DHT22;5599;52.210;21.046;2023-04-25T02:57:46;12.80;99.90
11091;DHT22;5599;52.210;21.046;2023-04-25T03:00:25;12.80;99.90
11091;DHT22;5599;52.210;21.046;2023-04-25T03:02:55;12.80;99.90
11091;DHT22;5599;52.210;21.046;2023-04-25T03:05:24;12.70;99.90
11091;DHT22;5599;52.210;21.046;2023-04-25T03:07:53;12.80;99.90
11091;DHT22;5599;52.210;21.046;2023-04-25T03:10:25;12.80;99.90
11091;DHT22;5599;52.210;21.046;2023-04-25T03:12:56;12.80;99.90
11091;DHT22;5599;52.210;21.046;2023-04-25T03:15:25;12.70;99.90
11091;DHT22;5599;52.210;21.046;2023-04-25T03:17:55;12.70;99.90
11091;DHT22;5599;52.210;21.046;2023-04-25T03:20:24;12.70;99.90
11091;DHT22;5599;52.210;21.046;2023-04-25T03:22:53;12.80;99.90
11091;DHT22;5599;52.210;21.046;2023-04-25T03:25:25;12.80;99.90
11091;DHT22;5599;52.210;21.046;2023-04-25T03:27:54;12.70;99.90
11091;DHT22;5599;52.210;21.046;2023-04-25T03:30:23;12.70;99.90
11091;DHT22;5599;52.210;21.046;2023-04-25T03:32:53;12.80;99.90
11091;DHT22;5599;52.210;21.046;2023-04-25T03:35:22;12.90;99.90
11091;DHT22;5599;52.210;21.046;2023-04-25T03:37:53;12.90;99.90
11091;DHT22;5599;52.210;21.046;2023-04-25T03:40:29;12.90;99.90
11091;DHT22;5599;52.210;21.046;2023-04-25T03:43:20;12.90;99.90
11091;DHT22;5599;52.210;21.046;2023-04-25T03:45:55;12.80;99.90
11091;DHT22;5599;52.210;21.046;2023-04-25T03:48:25;12.80;99.90
11091;DHT22;5599;52.210;21.046;2023-04-25T03:50:55;12.80;99.90
11091;DHT22;5599;52.210;21.046;2023-04-25T03:53:25;12.80;99.90
11091;DHT22;5599;52.210;21.046;2023-04-25T03:56:21;12.80;99.90
11091;DHT22;5599;52.210;21.046;2023-04-25T03:58:58;12.80;99.90
11091;DHT22;5599;52.210;21.046;2023-04-25T04:01:31;12.90;99.90
11091;DHT22;5599;52.210;21.046;2023-04-25T04:04:00;12.80;99.90
11091;DHT22;5599;52.210;21.046;2023-04-25T04:06:30;12.80;99.90
11091;DHT22;5599;52.210;21.046;2023-04-25T04:09:13;12.90;99.90
11091;DHT22;5599;52.210;21.046;2023-04-25T04:11:45;12.90;99.90
11091;DHT22;5599;52.210;21.046;2023-04-25T04:14:14;13.00;99.90
11091;DHT22;5599;52.210;21.046;2023-04-25T04:16:46;13.00;99.90
11091;DHT22;5599;52.210;21.046;2023-04-25T04:19:15;13.00;99.90
11091;DHT22;5599;52.210;21.046;2023-04-25T04:21:52;13.10;99.90
11091;DHT22;5599;52.210;21.046;2023-04-25T04:24:21;13.10;99.90
11091;DHT22;5599;52.210;21.046;2023-04-25T04:26:59;13.10;99.90
11091;DHT22;5599;52.210;21.046;2023-04-25T04:29:48;13.00;99.90
11091;DHT22;5599;52.210;21.046;2023-04-25T04:32:25;13.10;99.90
11091;DHT22;5599;52.210;21.046;2023-04-25T04:34:55;13.10;99.90
11091;DHT22;5599;52.210;21.046;2023-04-25T04:37:25;13.10;99.90
11091;DHT22;5599;52.210;21.046;2023-04-25T04:39:54;13.00;99.90
11091;DHT22;5599;52.210;21.046;2023-04-25T04:42:40;13.00;99.90
11091;DHT22;5599;52.210;21.046;2023-04-25T04:45:28;13.10;99.90
11091;DHT22;5599;52.210;21.046;2023-04-25T04:48:24;13.10;99.90
11091;DHT22;5599;52.210;21.046;2023-04-25T04:51:12;13.20;99.90
11091;DHT22;5599;52.210;21.046;2023-04-25T04:53:44;13.20;99.90
11091;DHT22;5599;52.210;21.046;2023-04-25T04:56:36;13.20;99.90
11091;DHT22;5599;52.210;21.046;2023-04-25T04:59:19;13.20;99.90
11091;DHT22;5599;52.210;21.046;2023-04-25T05:02:01;13.20;99.90
11091;DHT22;5599;52.210;21.046;2023-04-25T05:04:49;13.20;99.90
11091;DHT22;5599;52.210;21.046;2023-04-25T05:07:41;13.20;99.90
11091;DHT22;5599;52.210;21.046;2023-04-25T05:10:31;13.20;99.90
11091;DHT22;5599;52.210;21.046;2023-04-25T05:13:10;13.20;99.90
11091;DHT22;5599;52.210;21.046;2023-04-25T05:15:59;13.10;99.90
11091;DHT22;5599;52.210;21.046;2023-04-25T05:18:47;13.10;99.90
11091;DHT22;5599;52.210;21.046;2023-04-25T05:21:52;13.00;99.90
11091;DHT22;5599;52.210;21.046;2023-04-25T05:24:48;13.00;99.90
11091;DHT22;5599;52.210;21.046;2023-04-25T05:27:46;13.00;99.90
11091;DHT22;5599;52.210;21.046;2023-04-25T05:30:47;12.90;99.90
11091;DHT22;5599;52.210;21.046;2023-04-25T05:33:23;12.90;99.90
11091;DHT22;5599;52.210;21.046;2023-04-25T05:35:54;12.90;99.90
11091;DHT22;5599;52.210;21.046;2023-04-25T05:38:25;12.90;99.90
11091;DHT22;5599;52.210;21.046;2023-04-25T05:41:13;12.90;99.90
11091;DHT22;5599;52.210;21.046;2023-04-25T05:43:47;12.80;99.90
11091;DHT22;5599;52.210;21.046;2023-04-25T05:46:44;12.80;99.90
11091;DHT22;5599;52.210;21.046;2023-04-25T05:49:53;12.80;99.90
11091;DHT22;5599;52.210;21.046;2023-04-25T05:52:42;12.80;99.90
11091;DHT22;5599;52.210;21.046;2023-04-25T05:55:31;12.80;99.90
11091;DHT22;5599;52.210;21.046;2023-04-25T05:58:10;12.90;99.90
11091;DHT22;5599;52.210;21.046;2023-04-25T06:00:39;12.90;99.90
11091;DHT22;5599;52.210;21.046;2023-04-25T06:03:09;12.90;99.90
11091;DHT22;5599;52.210;21.046;2023-04-25T06:05:41;12.90;99.90
11091;DHT22;5599;52.210;21.046;2023-04-25T06:08:10;12.80;99.90
11091;DHT22;5599;52.210;21.046;2023-04-25T06:10:40;12.80;99.90
11091;DHT22;5599;52.210;21.046;2023-04-25T06:13:09;12.80;99.90
11091;DHT22;5599;52.210;21.046;2023-04-25T06:15:39;12.70;99.90
11091;DHT22;5599;52.210;21.046;2023-04-25T06:18:08;12.60;99.90
11091;DHT22;5599;52.210;21.046;2023-04-25T06:20:39;12.50;99.90
11091;DHT22;5599;52.210;21.046;2023-04-25T06:23:09;12.50;99.90
11091;DHT22;5599;52.210;21.046;2023-04-25T06:25:56;12.60;99.90
11091;DHT22;5599;52.210;21.046;2023-04-25T06:28:27;12.50;99.90
11091;DHT22;5599;52.210;21.046;2023-04-25T06:30:56;12.50;99.90
11091;DHT22;5599;52.210;21.046;2023-04-25T06:33:28;12.40;99.90
11091;DHT22;5599;52.210;21.046;2023-04-25T06:35:59;12.30;99.90
11091;DHT22;5599;52.210;21.046;2023-04-25T06:38:29;12.30;99.90
11091;DHT22;5599;52.210;21.046;2023-04-25T06:40:59;12.30;99.90
11091;DHT22;5599;52.210;21.046;2023-04-25T06:43:31;12.30;99.90
11091;DHT22;5599;52.210;21.046;2023-04-25T06:46:30;12.30;99.90
11091;DHT22;5599;52.210;21.046;2023-04-25T06:48:59;12.20;99.90
11091;DHT22;5599;52.210;21.046;2023-04-25T06:51:30;12.20;99.90
11091;DHT22;5599;52.210;21.046;2023-04-25T06:54:00;12.20;99.90
11091;DHT22;5599;52.210;21.046;2023-04-25T06:56:40;12.20;99.90
11091;DHT22;5599;52.210;21.046;2023-04-25T06:59:16;12.20;99.90
11091;DHT22;5599;52.210;21.046;2023-04-25T07:01:46;12.30;99.90
11091;DHT22;5599;52.210;21.046;2023-04-25T07:04:18;12.30;99.90
11091;DHT22;5599;52.210;21.046;2023-04-25T07:06:53;12.40;99.90
11091;DHT22;5599;52.210;21.046;2023-04-25T07:09:38;12.50;99.90
11091;DHT22;5599;52.210;21.046;2023-04-25T07:12:07;12.60;99.90
11091;DHT22;5599;52.210;21.046;2023-04-25T07:14:36;12.80;99.90
11091;DHT22;5599;52.210;21.046;2023-04-25T07:17:06;12.90;99.90
11091;DHT22;5599;52.210;21.046;2023-04-25T07:19:36;12.90;99.90
11091;DHT22;5599;52.210;21.046;2023-04-25T07:22:10;13.10;99.90
11091;DHT22;5599;52.210;21.046;2023-04-25T07:24:41;13.20;99.90
11091;DHT22;5599;52.210;21.046;2023-04-25T07:27:13;13.40;62.20
11091;DHT22;5599;52.210;21.046;2023-04-25T07:29:50;13.60;93.30
11091;DHT22;5599;52.210;21.046;2023-04-25T07:32:22;13.80;92.50
11091;DHT22;5599;52.210;21.046;2023-04-25T07:34:56;13.80;52.60
11091;DHT22;5599;52.210;21.046;2023-04-25T07:37:28;13.90;1.00
11091;DHT22;5599;52.210;21.046;2023-04-25T07:40:06;13.90;1.00
11091;DHT22;5599;52.210;21.046;2023-04-25T07:42:42;13.80;1.00
11091;DHT22;5599;52.210;21.046;2023-04-25T07:45:13;13.70;1.00
11091;DHT22;5599;52.210;21.046;2023-04-25T07:47:44;13.70;1.00
11091;DHT22;5599;52.210;21.046;2023-04-25T07:50:13;13.70;1.00
11091;DHT22;5599;52.210;21.046;2023-04-25T07:52:44;13.80;1.00
11091;DHT22;5599;52.210;21.046;2023-04-25T07:55:28;13.80;1.00
11091;DHT22;5599;52.210;21.046;2023-04-25T07:58:03;13.80;1.00
11091;DHT22;5599;52.210;21.046;2023-04-25T08:00:33;13.90;1.00
11091;DHT22;5599;52.210;21.046;2023-04-25T08:03:31;14.00;1.00
11091;DHT22;5599;52.210;21.046;2023-04-25T08:06:04;14.00;1.00
11091;DHT22;5599;52.210;21.046;2023-04-25T08:08:44;14.10;1.00
11091;DHT22;5599;52.210;21.046;2023-04-25T08:11:18;14.10;1.00
11091;DHT22;5599;52.210;21.046;2023-04-25T08:13:48;14.00;1.00
11091;DHT22;5599;52.210;21.046;2023-04-25T08:16:18;14.00;1.00
11091;DHT22;5599;52.210;21.046;2023-04-25T08:18:48;13.90;1.00
11091;DHT22;5599;52.210;21.046;2023-04-25T08:21:18;13.80;1.00
11091;DHT22;5599;52.210;21.046;2023-04-25T08:23:51;13.80;1.00
11091;DHT22;5599;52.210;21.046;2023-04-25T08:26:29;13.80;1.00
11091;DHT22;5599;52.210;21.046;2023-04-25T08:28:59;13.80;1.00
11091;DHT22;5599;52.210;21.046;2023-04-25T08:31:28;13.90;1.00
11091;DHT22;5599;52.210;21.046;2023-04-25T08:34:00;13.90;1.00
11091;DHT22;5599;52.210;21.046;2023-04-25T08:36:40;14.10;1.00
11091;DHT22;5599;52.210;21.046;2023-04-25T08:39:30;14.00;1.00
11091;DHT22;5599;52.210;21.046;2023-04-25T08:42:21;13.90;1.00
11091;DHT22;5599;52.210;21.046;2023-04-25T08:44:53;13.70;1.00
11091;DHT22;5599;52.210;21.046;2023-04-25T08:47:30;13.50;1.00
11091;DHT22;5599;52.210;21.046;2023-04-25T08:50:03;13.30;1.00
11091;DHT22;5599;52.210;21.046;2023-04-25T08:52:37;13.10;1.00
11091;DHT22;5599;52.210;21.046;2023-04-25T08:55:10;13.00;1.00
11091;DHT22;5599;52.210;21.046;2023-04-25T08:57:42;12.90;1.00
11091;DHT22;5599;52.210;21.046;2023-04-25T09:00:12;12.70;1.00
11091;DHT22;5599;52.210;21.046;2023-04-25T09:02:44;12.70;1.00
11091;DHT22;5599;52.210;21.046;2023-04-25T09:05:15;12.70;1.00
11091;DHT22;5599;52.210;21.046;2023-04-25T09:07:48;12.60;1.00
11091;DHT22;5599;52.210;21.046;2023-04-25T09:10:27;12.60;1.00
11091;DHT22;5599;52.210;21.046;2023-04-25T09:13:08;12.70;1.00
11091;DHT22;5599;52.210;21.046;2023-04-25T09:16:12;12.70;1.00
11091;DHT22;5599;52.210;21.046;2023-04-25T09:19:21;12.70;1.00
11091;DHT22;5599;52.210;21.046;2023-04-25T09:22:07;12.70;1.00
11091;DHT22;5599;52.210;21.046;2023-04-25T09:24:38;12.60;1.00
11091;DHT22;5599;52.210;21.046;2023-04-25T09:27:10;12.50;1.00
11091;DHT22;5599;52.210;21.046;2023-04-25T09:29:41;12.40;1.00
11091;DHT22;5599;52.210;21.046;2023-04-25T09:32:19;12.30;1.00
11091;DHT22;5599;52.210;21.046;2023-04-25T09:34:53;12.20;1.00
11091;DHT22;5599;52.210;21.046;2023-04-25T09:37:24;12.10;1.00
11091;DHT22;5599;52.210;21.046;2023-04-25T09:40:18;12.20;1.00
11091;DHT22;5599;52.210;21.046;2023-04-25T09:43:21;12.30;1.00
11091;DHT22;5599;52.210;21.046;2023-04-25T09:45:54;12.30;1.00
11091;DHT22;5599;52.210;21.046;2023-04-25T09:48:27;12.30;1.00
11091;DHT22;5599;52.210;21.046;2023-04-25T09:51:05;12.40;1.00
11091;DHT22;5599;52.210;21.046;2023-04-25T09:53:47;12.40;1.00
11091;DHT22;5599;52.210;21.046;2023-04-25T09:57:33;12.40;1.00
11091;DHT22;5599;52.210;21.046;2023-04-25T10:00:09;12.50;1.00
11091;DHT22;5599;52.210;21.046;2023-04-25T10:02:47;12.50;1.00
11091;DHT22;5599;52.210;21.046;2023-04-25T10:05:42;12.60;1.00
11091;DHT22;5599;52.210;21.046;2023-04-25T10:08:13;12.60;1.00
11091;DHT22;5599;52.210;21.046;2023-04-25T10:10:44;12.50;1.00
11091;DHT22;5599;52.210;21.046;2023-04-25T10:13:18;12.40;1.00
11091;DHT22;5599;52.210;21.046;2023-04-25T10:15:55;12.40;1.00
11091;DHT22;5599;52.210;21.046;2023-04-25T10:18:26;12.40;1.00
11091;DHT22;5599;52.210;21.046;2023-04-25T10:20:57;12.50;1.00
11091;DHT22;5599;52.210;21.046;2023-04-25T10:23:27;12.50;1.00
11091;DHT22;5599;52.210;21.046;2023-04-25T10:25:59;12.50;1.00
11091;DHT22;5599;52.210;21.046;2023-04-25T10:28:29;12.50;1.00
11091;DHT22;5599;52.210;21.046;2023-04-25T10:31:02;12.60;1.00
11091;DHT22;5599;52.210;21.046;2023-04-25T10:33:36;12.60;1.00
11091;DHT22;5599;52.210;21.046;2023-04-25T10:36:10;12.60;1.00
11091;DHT22;5599;52.210;21.046;2023-04-25T10:38:42;12.50;1.00
11091;DHT22;5599;52.210;21.046;2023-04-25T10:41:13;12.60;1.00
11091;DHT22;5599;52.210;21.046;2023-04-25T10:43:44;12.60;1.00
11091;DHT22;5599;52.210;21.046;2023-04-25T10:46:17;12.50;1.00
11091;DHT22;5599;52.210;21.046;2023-04-25T10:48:48;12.40;1.00
11091;DHT22;5599;52.210;21.046;2023-04-25T10:51:21;12.50;1.00
11091;DHT22;5599;52.210;21.046;2023-04-25T10:54:00;12.50;1.00
11091;DHT22;5599;52.210;21.046;2023-04-25T10:56:36;12.50;1.00
11091;DHT22;5599;52.210;21.046;2023-04-25T10:59:09;12.60;1.00
11091;DHT22;5599;52.210;21.046;2023-04-25T11:01:42;12.70;1.00
11091;DHT22;5599;52.210;21.046;2023-04-25T11:04:23;12.70;1.00
11091;DHT22;5599;52.210;21.046;2023-04-25T11:07:13;12.60;1.00
11091;DHT22;5599;52.210;21.046;2023-04-25T11:09:46;12.60;1.00
11091;DHT22;5599;52.210;21.046;2023-04-25T11:12:16;12.60;1.00
11091;DHT22;5599;52.210;21.046;2023-04-25T11:14:46;12.70;1.00
11091;DHT22;5599;52.210;21.046;2023-04-25T11:17:16;12.80;1.00
11091;DHT22;5599;52.210;21.046;2023-04-25T11:19:48;12.80;1.00
11091;DHT22;5599;52.210;21.046;2023-04-25T11:22:25;12.80;1.00
11091;DHT22;5599;52.210;21.046;2023-04-25T11:24:55;12.80;1.00
11091;DHT22;5599;52.210;21.046;2023-04-25T11:27:25;12.70;1.00
11091;DHT22;5599;52.210;21.046;2023-04-25T11:29:54;12.70;1.00
11091;DHT22;5599;52.210;21.046;2023-04-25T11:32:25;12.70;1.00
11091;DHT22;5599;52.210;21.046;2023-04-25T11:34:55;12.80;1.00
11091;DHT22;5599;52.210;21.046;2023-04-25T11:37:24;12.90;1.00
11091;DHT22;5599;52.210;21.046;2023-04-25T11:39:57;13.00;1.00
11091;DHT22;5599;52.210;21.046;2023-04-25T11:42:27;13.00;1.00
11091;DHT22;5599;52.210;21.046;2023-04-25T11:44:57;13.00;1.00
11091;DHT22;5599;52.210;21.046;2023-04-25T11:47:32;13.10;1.00
11091;DHT22;5599;52.210;21.046;2023-04-25T11:50:02;13.20;1.00
11091;DHT22;5599;52.210;21.046;2023-04-25T11:52:42;13.10;1.00
11091;DHT22;5599;52.210;21.046;2023-04-25T11:55:14;13.20;1.00
11091;DHT22;5599;52.210;21.046;2023-04-25T11:57:45;13.20;1.00
11091;DHT22;5599;52.210;21.046;2023-04-25T12:00:16;13.10;1.00
11091;DHT22;5599;52.210;21.046;2023-04-25T12:02:53;13.20;1.00
11091;DHT22;5599;52.210;21.046;2023-04-25T12:05:25;13.20;1.00
11091;DHT22;5599;52.210;21.046;2023-04-25T12:08:15;13.20;1.00
11091;DHT22;5599;52.210;21.046;2023-04-25T12:10:58;13.10;1.00
11091;DHT22;5599;52.210;21.046;2023-04-25T12:13:31;13.10;1.00
11091;DHT22;5599;52.210;21.046;2023-04-25T12:16:01;13.10;1.00
11091;DHT22;5599;52.210;21.046;2023-04-25T12:18:32;13.20;1.00
11091;DHT22;5599;52.210;21.046;2023-04-25T12:21:05;13.20;1.00
11091;DHT22;5599;52.210;21.046;2023-04-25T12:23:38;13.30;1.00
11091;DHT22;5599;52.210;21.046;2023-04-25T12:26:09;13.30;1.00
11091;DHT22;5599;52.210;21.046;2023-04-25T12:28:39;13.30;1.00
11091;DHT22;5599;52.210;21.046;2023-04-25T12:31:09;13.40;1.00
11091;DHT22;5599;52.210;21.046;2023-04-25T12:33:41;13.30;1.00
11091;DHT22;5599;52.210;21.046;2023-04-25T12:36:19;13.20;30.60
11091;DHT22;5599;52.210;21.046;2023-04-25T12:38:48;13.20;31.80
11091;DHT22;5599;52.210;21.046;2023-04-25T12:41:18;13.30;1.00
11091;DHT22;5599;52.210;21.046;2023-04-25T12:43:48;13.40;21.10
11091;DHT22;5599;52.210;21.046;2023-04-25T12:46:18;13.50;20.40
11091;DHT22;5599;52.210;21.046;2023-04-25T12:48:49;13.60;1.00
11091;DHT22;5599;52.210;21.046;2023-04-25T12:51:18;13.70;5.80
11091;DHT22;5599;52.210;21.046;2023-04-25T12:53:48;13.70;27.10
11091;DHT22;5599;52.210;21.046;2023-04-25T12:56:18;13.70;23.40
11091;DHT22;5599;52.210;21.046;2023-04-25T12:58:51;13.60;38.90
11091;DHT22;5599;52.210;21.046;2023-04-25T13:01:21;13.50;37.90
11091;DHT22;5599;52.210;21.046;2023-04-25T13:03:58;13.50;13.60
11091;DHT22;5599;52.210;21.046;2023-04-25T13:06:35;13.50;27.70
11091;DHT22;5599;52.210;21.046;2023-04-25T13:09:05;13.50;21.50
11091;DHT22;5599;52.210;21.046;2023-04-25T13:11:34;13.60;13.50
11091;DHT22;5599;52.210;21.046;2023-04-25T13:14:04;13.50;22.90
11091;DHT22;5599;52.210;21.046;2023-04-25T13:16:34;13.70;15.40
11091;DHT22;5599;52.210;21.046;2023-04-25T13:19:09;13.70;20.60
11091;DHT22;5599;52.210;21.046;2023-04-25T13:21:40;13.60;37.20
11091;DHT22;5599;52.210;21.046;2023-04-25T13:24:09;13.60;1.00
11091;DHT22;5599;52.210;21.046;2023-04-25T13:26:39;13.50;1.00
11091;DHT22;5599;52.210;21.046;2023-04-25T13:29:10;13.40;1.00
11091;DHT22;5599;52.210;21.046;2023-04-25T13:31:39;13.40;1.00
11091;DHT22;5599;52.210;21.046;2023-04-25T13:34:11;13.40;1.00
11091;DHT22;5599;52.210;21.046;2023-04-25T13:36:41;13.30;1.00
11091;DHT22;5599;52.210;21.046;2023-04-25T13:39:12;13.30;1.00
11091;DHT22;5599;52.210;21.046;2023-04-25T13:41:41;13.40;1.00
11091;DHT22;5599;52.210;21.046;2023-04-25T13:44:11;13.30;1.00
11091;DHT22;5599;52.210;21.046;2023-04-25T13:46:41;13.40;1.00
11091;DHT22;5599;52.210;21.046;2023-04-25T13:49:16;13.50;1.00
11091;DHT22;5599;52.210;21.046;2023-04-25T13:51:45;13.60;1.00
11091;DHT22;5599;52.210;21.046;2023-04-25T13:54:14;13.40;1.00
11091;DHT22;5599;52.210;21.046;2023-04-25T13:56:44;13.40;1.00
11091;DHT22;5599;52.210;21.046;2023-04-25T13:59:13;13.40;1.00
11091;DHT22;5599;52.210;21.046;2023-04-25T14:01:42;13.40;99.90
11091;DHT22;5599;52.210;21.046;2023-04-25T14:04:12;13.40;1.00
11091;DHT22;5599;52.210;21.046;2023-04-25T14:06:43;13.40;1.00
11091;DHT22;5599;52.210;21.046;2023-04-25T14:09:13;13.40;1.00
11091;DHT22;5599;52.210;21.046;2023-04-25T14:11:43;13.50;1.00
11091;DHT22;5599;52.210;21.046;2023-04-25T14:14:12;13.50;1.00
11091;DHT22;5599;52.210;21.046;2023-04-25T14:16:43;13.60;1.00
11091;DHT22;5599;52.210;21.046;2023-04-25T14:19:13;13.70;1.00
11091;DHT22;5599;52.210;21.046;2023-04-25T14:21:45;13.70;1.00
11091;DHT22;5599;52.210;21.046;2023-04-25T14:24:15;13.80;1.00
11091;DHT22;5599;52.210;21.046;2023-04-25T14:26:44;13.70;1.00
11091;DHT22;5599;52.210;21.046;2023-04-25T14:29:13;13.60;1.00
11091;DHT22;5599;52.210;21.046;2023-04-25T14:31:43;13.60;1.00
11091;DHT22;5599;52.210;21.046;2023-04-25T14:34:14;13.50;1.00
11091;DHT22;5599;52.210;21.046;2023-04-25T14:36:47;13.50;1.00
11091;DHT22;5599;52.210;21.046;2023-04-25T14:39:20;13.50;1.00
11091;DHT22;5599;52.210;21.046;2023-04-25T14:41:55;13.50;1.00
11091;DHT22;5599;52.210;21.046;2023-04-25T14:44:27;13.40;1.00
11091;DHT22;5599;52.210;21.046;2023-04-25T14:47:00;13.40;1.00
11091;DHT22;5599;52.210;21.046;2023-04-25T14:49:29;13.40;1.00
11091;DHT22;5599;52.210;21.046;2023-04-25T14:52:06;13.40;1.00
11091;DHT22;5599;52.210;21.046;2023-04-25T14:54:37;13.40;1.00
11091;DHT22;5599;52.210;21.046;2023-04-25T14:57:06;13.30;1.00
11091;DHT22;5599;52.210;21.046;2023-04-25T14:59:36;13.30;1.00
11091;DHT22;5599;52.210;21.046;2023-04-25T15:02:08;13.20;1.00
11091;DHT22;5599;52.210;21.046;2023-04-25T15:04:41;13.10;1.00
11091;DHT22;5599;52.210;21.046;2023-04-25T15:07:12;13.10;1.00
11091;DHT22;5599;52.210;21.046;2023-04-25T15:09:46;13.10;1.00
11091;DHT22;5599;52.210;21.046;2023-04-25T15:12:16;12.90;1.00
11091;DHT22;5599;52.210;21.046;2023-04-25T15:14:45;13.00;1.00
11091;DHT22;5599;52.210;21.046;2023-04-25T15:17:15;13.00;1.00
11091;DHT22;5599;52.210;21.046;2023-04-25T15:19:44;13.00;1.00
11091;DHT22;5599;52.210;21.046;2023-04-25T15:22:15;13.10;1.00
11091;DHT22;5599;52.210;21.046;2023-04-25T15:24:45;13.10;1.00
11091;DHT22;5599;52.210;21.046;2023-04-25T15:27:14;13.00;1.00
11091;DHT22;5599;52.210;21.046;2023-04-25T15:29:44;13.00;1.00
11091;DHT22;5599;52.210;21.046;2023-04-25T15:32:17;12.90;1.00
11091;DHT22;5599;52.210;21.046;2023-04-25T15:34:47;12.80;1.00
11091;DHT22;5599;52.210;21.046;2023-04-25T15:37:19;12.80;1.00
11091;DHT22;5599;52.210;21.046;2023-04-25T15:39:48;12.70;1.00
11091;DHT22;5599;52.210;21.046;2023-04-25T15:42:29;12.70;1.00
11091;DHT22;5599;52.210;21.046;2023-04-25T15:44:58;12.60;1.00
11091;DHT22;5599;52.210;21.046;2023-04-25T15:47:28;12.60;1.00
11091;DHT22;5599;52.210;21.046;2023-04-25T15:49:58;12.50;1.00
11091;DHT22;5599;52.210;21.046;2023-04-25T15:52:29;12.50;1.00
11091;DHT22;5599;52.210;21.046;2023-04-25T15:54:59;12.40;1.00
11091;DHT22;5599;52.210;21.046;2023-04-25T15:57:28;12.30;1.00
11091;DHT22;5599;52.210;21.046;2023-04-25T15:59:58;12.20;1.00
11091;DHT22;5599;52.210;21.046;2023-04-25T16:02:38;12.20;1.00
11091;DHT22;5599;52.210;21.046;2023-04-25T16:05:09;12.20;1.00
11091;DHT22;5599;52.210;21.046;2023-04-25T16:07:42;12.30;1.00
11091;DHT22;5599;52.210;21.046;2023-04-25T16:10:13;12.10;1.00
11091;DHT22;5599;52.210;21.046;2023-04-25T16:12:44;12.10;1.00
11091;DHT22;5599;52.210;21.046;2023-04-25T16:15:15;12.00;1.00
11091;DHT22;5599;52.210;21.046;2023-04-25T16:17:44;11.90;1.00
11091;DHT22;5599;52.210;21.046;2023-04-25T16:20:15;11.80;1.00
11091;DHT22;5599;52.210;21.046;2023-04-25T16:22:47;11.80;1.00